createdAt,value
2022-08-11T00:01:16.212Z,101233.28
2022-08-11T00:03:49.557Z,101234.28
2022-08-11T00:06:26.813Z,101233.87
2022-08-11T00:08:56.222Z,101235.56
2022-08-11T00:11:34.179Z,101236.84
2022-08-11T00:14:04.744Z,101228.06
2022-08-11T00:16:33.775Z,101231.69
2022-08-11T00:19:03.690Z,101228.56
2022-08-11T00:22:03.905Z,101231.38
2022-08-11T00:24:50.961Z,101226.25
2022-08-11T00:27:33.290Z,101233.94
2022-08-11T00:30:01.513Z,101229.41
2022-08-11T00:32:30.980Z,101227.38
2022-08-11T00:35:51.948Z,101221.06
2022-08-11T00:37:54.154Z,101227.69
2022-08-11T00:40:28.248Z,101225.88
2022-08-11T00:43:10.884Z,101238.78
2022-08-11T00:46:10.668Z,101235.84
2022-08-11T00:48:48.567Z,101236.34
2022-08-11T00:51:57.707Z,101231.31
2022-08-11T00:55:01.575Z,101229.38
2022-08-11T00:57:59.863Z,101223.31
2022-08-11T01:00:34.363Z,101231.50
2022-08-11T01:03:18.028Z,101228.69
2022-08-11T01:06:05.413Z,101226.75
2022-08-11T01:09:08.588Z,101229.16
2022-08-11T01:12:06.344Z,101227.84
2022-08-11T01:15:16.087Z,101228.25
2022-08-11T01:18:17.003Z,101230.84
2022-08-11T01:21:40.013Z,101233.69
2022-08-11T01:25:04.327Z,101241.66
2022-08-11T01:28:10.245Z,101249.34
2022-08-11T01:31:14.435Z,101242.03
2022-08-11T01:34:34.723Z,101236.66
2022-08-11T01:37:39.824Z,101233.47
2022-08-11T01:40:30.702Z,101236.78
2022-08-11T01:43:32.864Z,101240.06
2022-08-11T01:46:06.154Z,101245.75
2022-08-11T01:48:42.435Z,101246.03
2022-08-11T01:51:23.799Z,101244.44
2022-08-11T01:53:58.196Z,101240.91
2022-08-11T01:56:38.267Z,101246.63
2022-08-11T01:59:18.882Z,101237.63
2022-08-11T02:01:59.010Z,101244.69
2022-08-11T02:04:36.962Z,101248.84
2022-08-11T02:07:15.340Z,101242.34
2022-08-11T02:10:01.697Z,101239.94
2022-08-11T02:12:52.590Z,101241.03
2022-08-11T02:15:28.750Z,101237.63
2022-08-11T02:18:06.090Z,101234.16
2022-08-11T02:21:00.750Z,101242.47
2022-08-11T02:24:04.126Z,101239.31
2022-08-11T02:26:36.596Z,101234.75
2022-08-11T02:29:14.400Z,101241.22
2022-08-11T02:32:25.525Z,101242.31
2022-08-11T02:35:10.945Z,101233.87
2022-08-11T02:37:50.962Z,101238.97
2022-08-11T02:40:25.609Z,101246.53
2022-08-11T02:43:10.212Z,101236.28
2022-08-11T02:45:54.530Z,101245.28
2022-08-11T02:48:51.909Z,101242.97
2022-08-11T02:51:28.788Z,101243.31
2022-08-11T02:54:07.951Z,101243.69
2022-08-11T02:56:47.135Z,101241.84
2022-08-11T02:59:44.695Z,101245.72
2022-08-11T03:02:22.728Z,101245.06
2022-08-11T03:05:04.136Z,101247.88
2022-08-11T03:07:43.357Z,101247.75
2022-08-11T03:10:19.203Z,101245.19
2022-08-11T03:13:10.471Z,101246.16
2022-08-11T03:16:04.765Z,101248.59
2022-08-11T03:18:40.830Z,101246.47
2022-08-11T03:21:19.051Z,101246.84
2022-08-11T03:23:56.843Z,101248.09
2022-08-11T03:26:32.924Z,101253.97
2022-08-11T03:29:08.884Z,101249.34
2022-08-11T03:31:47.299Z,101251.91
2022-08-11T03:34:18.334Z,101255.31
2022-08-11T03:37:16.383Z,101259.72
2022-08-11T03:40:00.390Z,101260.34
2022-08-11T03:42:36.136Z,101257.53
2022-08-11T03:45:16.513Z,101260.44
2022-08-11T03:48:01.415Z,101248.25
2022-08-11T03:50:55.667Z,101254.06
2022-08-11T03:53:40.926Z,101256.84
2022-08-11T03:56:30.224Z,101256.87
2022-08-11T03:59:32.764Z,101253.31
2022-08-11T04:02:33.821Z,101260.44
2022-08-11T04:05:38.358Z,101262.19
2022-08-11T04:08:37.472Z,101257.41
2022-08-11T04:11:51.299Z,101262.47
2022-08-11T04:15:07.811Z,101267.28
2022-08-11T04:18:02.061Z,101261.53
2022-08-11T04:20:50.487Z,101255.31
2022-08-11T04:24:35.011Z,101261.41
2022-08-11T04:27:14.350Z,101264.72
2022-08-11T04:30:04.002Z,101264.50
2022-08-11T04:33:03.186Z,101261.72
2022-08-11T04:35:47.336Z,101258.69
2022-08-11T04:38:59.329Z,101262.00
2022-08-11T04:42:31.007Z,101272.81
2022-08-11T04:45:26.755Z,101265.28
2022-08-11T04:48:29.290Z,101267.28
2022-08-11T04:51:27.041Z,101269.50
2022-08-11T04:54:28.313Z,101267.94
2022-08-11T04:57:24.002Z,101265.53
2022-08-11T05:00:24.127Z,101262.31
2022-08-11T05:03:33.434Z,101266.16
2022-08-11T05:06:38.159Z,101272.28
2022-08-11T05:09:23.581Z,101271.31
2022-08-11T05:12:07.191Z,101268.06
2022-08-11T05:14:55.080Z,101272.00
2022-08-11T05:17:49.735Z,101266.31
2022-08-11T05:20:35.211Z,101267.66
2022-08-11T05:23:25.476Z,101263.63
2022-08-11T05:26:47.611Z,101264.34
2022-08-11T05:29:27.316Z,101270.06
2022-08-11T05:32:17.719Z,101272.47
2022-08-11T05:34:53.721Z,101279.69
2022-08-11T05:37:32.963Z,101277.84
2022-08-11T05:40:25.208Z,101278.06
2022-08-11T05:43:17.171Z,101277.63
2022-08-11T05:46:07.126Z,101275.72
2022-08-11T05:48:55.728Z,101276.66
2022-08-11T05:51:55.024Z,101275.88
2022-08-11T05:54:46.707Z,101278.97
2022-08-11T05:57:39.677Z,101276.38
2022-08-11T06:00:12.585Z,101284.53
2022-08-11T06:02:43.193Z,101282.44
2022-08-11T06:05:14.188Z,101290.16
2022-08-11T06:07:47.309Z,101285.94
2022-08-11T06:10:28.296Z,101289.69
2022-08-11T06:13:01.088Z,101289.91
2022-08-11T06:15:34.624Z,101282.16
2022-08-11T06:18:04.135Z,101284.47
2022-08-11T06:20:37.399Z,101284.75
2022-08-11T06:23:08.673Z,101283.94
2022-08-11T06:25:38.142Z,101285.38
2022-08-11T06:28:08.531Z,101292.06
2022-08-11T06:30:40.830Z,101287.09
2022-08-11T06:33:12.021Z,101290.75
2022-08-11T06:35:49.422Z,101294.69
2022-08-11T06:38:40.494Z,101293.94
2022-08-11T06:41:34.377Z,101297.16
2022-08-11T06:44:17.589Z,101299.22
2022-08-11T06:46:50.797Z,101299.66
2022-08-11T06:49:38.670Z,101302.19
2022-08-11T06:52:34.011Z,101307.38
2022-08-11T06:55:06.270Z,101304.87
2022-08-11T06:57:53.106Z,101311.34
2022-08-11T07:00:30.675Z,101299.53
2022-08-11T07:03:08.231Z,101309.88
2022-08-11T07:05:45.668Z,101312.25
2022-08-11T07:08:52.615Z,101312.53
2022-08-11T07:12:13.523Z,101306.38
2022-08-11T07:15:07.578Z,101303.09
2022-08-11T07:17:40.587Z,101298.09
2022-08-11T07:20:30.052Z,101301.03
2022-08-11T07:23:19.864Z,101287.50
2022-08-11T07:26:10.675Z,101295.47
2022-08-11T07:28:59.136Z,101289.22
2022-08-11T07:31:36.998Z,101294.84
2022-08-11T07:34:17.958Z,101292.28
2022-08-11T07:36:52.329Z,101292.09
2022-08-11T07:39:22.620Z,101285.44
2022-08-11T07:41:52.777Z,101288.47
2022-08-11T07:44:21.975Z,101286.06
2022-08-11T07:47:09.379Z,101287.34
2022-08-11T07:49:57.353Z,101285.59
2022-08-11T07:52:34.005Z,101293.03
2022-08-11T07:55:05.963Z,101295.03
2022-08-11T07:58:15.586Z,101295.59
2022-08-11T08:01:03.791Z,101300.94
2022-08-11T08:03:58.098Z,101298.44
2022-08-11T08:06:45.832Z,101297.09
2022-08-11T08:09:36.931Z,101288.25
2022-08-11T08:12:24.788Z,101290.72
2022-08-11T08:15:12.266Z,101290.41
2022-08-11T08:18:09.041Z,101285.59
2022-08-11T08:20:47.845Z,101294.44
2022-08-11T08:23:17.359Z,101285.44
2022-08-11T08:25:48.044Z,101282.69
2022-08-11T08:28:18.546Z,101285.59
2022-08-11T08:30:51.175Z,101279.81
2022-08-11T08:33:22.607Z,101277.25
2022-08-11T08:36:12.586Z,101274.56
2022-08-11T08:38:42.236Z,101275.16
2022-08-11T08:41:13.266Z,101274.06
2022-08-11T08:43:49.246Z,101277.84
2022-08-11T08:46:26.689Z,101276.50
2022-08-11T08:48:57.369Z,101267.50
2022-08-11T08:51:58.544Z,101265.75
2022-08-11T08:54:34.066Z,101262.03
2022-08-11T08:57:05.394Z,101259.72
2022-08-11T08:59:48.999Z,101258.97
2022-08-11T09:02:22.125Z,101251.81
2022-08-11T09:05:10.013Z,101252.50
2022-08-11T09:07:40.712Z,101255.03
2022-08-11T09:10:10.821Z,101253.38
2022-08-11T09:12:43.238Z,101251.72
2022-08-11T09:15:14.048Z,101250.03
2022-08-11T09:17:46.832Z,101250.84
2022-08-11T09:20:19.191Z,101254.22
2022-08-11T09:26:15.629Z,101252.91
2022-08-11T09:28:46.684Z,101247.37
2022-08-11T09:31:15.858Z,101252.84
2022-08-11T09:33:45.672Z,101248.38
2022-08-11T09:36:32.458Z,101244.72
2022-08-11T09:39:21.586Z,101243.56
2022-08-11T09:42:00.473Z,101242.09
2022-08-11T09:44:52.950Z,101236.50
2022-08-11T09:47:24.103Z,101238.44
2022-08-11T09:49:55.083Z,101245.81
2022-08-11T09:52:24.882Z,101238.75
2022-08-11T09:54:54.391Z,101231.88
2022-08-11T09:57:41.416Z,101224.63
2022-08-11T10:00:15.145Z,101228.84
2022-08-11T10:02:46.044Z,101224.72
2022-08-11T10:05:35.974Z,101221.84
2022-08-11T10:08:05.953Z,101226.00
2022-08-11T10:10:37.419Z,101223.63
2022-08-11T10:14:10.550Z,101207.53
2022-08-11T10:16:15.626Z,101213.47
2022-08-11T10:18:52.634Z,101199.63
2022-08-11T10:21:30.334Z,101192.94
2022-08-11T10:24:20.278Z,101199.63
2022-08-11T10:26:56.703Z,101199.16
2022-08-11T10:29:44.427Z,101191.41
2022-08-11T10:32:49.417Z,101202.09
2022-08-11T10:35:27.371Z,101194.62
2022-08-11T10:38:08.784Z,101186.47
2022-08-11T10:40:40.472Z,101185.84
2022-08-11T10:43:13.780Z,101188.16
2022-08-11T10:46:03.615Z,101185.13
2022-08-11T10:48:37.824Z,101188.78
2022-08-11T10:51:15.102Z,101185.09
2022-08-11T10:54:03.195Z,101178.84
2022-08-11T10:56:53.305Z,101180.69
2022-08-11T10:59:23.143Z,101179.44
2022-08-11T11:01:54.133Z,101179.44
2022-08-11T11:04:36.829Z,101166.09
2022-08-11T11:07:13.925Z,101163.34
2022-08-11T11:09:45.310Z,101162.87
2022-08-11T11:12:38.219Z,101157.91
2022-08-11T11:15:25.573Z,101157.59
2022-08-11T11:18:01.770Z,101155.34
2022-08-11T11:20:43.719Z,101143.72
2022-08-11T11:23:19.952Z,101149.22
2022-08-11T11:26:10.864Z,101144.78
2022-08-11T11:28:59.540Z,101138.53
2022-08-11T11:31:37.014Z,101141.53
2022-08-11T11:34:20.566Z,101133.06
2022-08-11T11:36:51.534Z,101134.47
2022-08-11T11:39:23.125Z,101125.84
2022-08-11T11:41:55.528Z,101122.72
2022-08-11T11:44:25.184Z,101125.88
2022-08-11T11:46:53.731Z,101133.31
2022-08-11T11:52:00.768Z,101123.78
2022-08-11T11:54:32.403Z,101113.94
2022-08-11T11:57:21.776Z,101118.63
2022-08-11T12:00:09.991Z,101113.78
2022-08-11T12:02:41.254Z,101115.72
2022-08-11T12:05:11.152Z,101119.31
2022-08-11T12:08:10.509Z,101111.22
2022-08-11T12:10:42.034Z,101113.62
2022-08-11T12:13:27.850Z,101100.63
2022-08-11T12:16:33.611Z,101104.63
2022-08-11T12:18:47.420Z,101094.19
2022-08-11T12:21:17.976Z,101101.34
2022-08-11T12:24:07.371Z,101089.19
2022-08-11T12:27:15.007Z,101085.34
2022-08-11T12:29:45.268Z,101079.34
2022-08-11T12:32:13.989Z,101076.19
2022-08-11T12:34:42.342Z,101075.75
2022-08-11T12:37:13.778Z,101066.50
2022-08-11T12:40:16.866Z,101073.97
2022-08-11T12:43:21.645Z,101067.66
2022-08-11T12:45:58.364Z,101069.16
2022-08-11T12:49:00.589Z,101065.78
2022-08-11T12:52:00.906Z,101073.22
2022-08-11T12:54:47.531Z,101064.28
2022-08-11T12:57:37.319Z,101066.12
2022-08-11T13:00:25.456Z,101065.09
2022-08-11T13:03:13.490Z,101062.91
2022-08-11T13:05:44.502Z,101054.88
2022-08-11T13:08:15.175Z,101043.41
2022-08-11T13:11:03.869Z,101044.66
2022-08-11T13:13:52.965Z,101035.00
2022-08-11T13:16:23.451Z,101042.78
2022-08-11T13:18:53.513Z,101039.81
2022-08-11T13:21:23.595Z,101043.56
2022-08-11T13:23:59.611Z,101041.72
2022-08-11T13:26:46.620Z,101036.22
2022-08-11T13:29:19.292Z,101039.91
2022-08-11T13:31:47.508Z,101029.41
2022-08-11T13:34:16.816Z,101027.06
2022-08-11T13:36:45.852Z,101026.47
2022-08-11T13:39:14.749Z,101019.94
2022-08-11T13:41:47.672Z,101021.28
2022-08-11T13:44:24.832Z,101022.12
2022-08-11T13:46:55.327Z,101007.59
2022-08-11T13:49:24.483Z,101001.81
2022-08-11T13:51:53.981Z,101000.31
2022-08-11T13:54:24.699Z,100992.00
2022-08-11T13:56:57.813Z,100991.84
2022-08-11T13:59:29.858Z,100995.47
2022-08-11T14:02:28.268Z,100983.94
2022-08-11T14:04:56.346Z,100979.69
2022-08-11T14:07:28.377Z,100974.19
2022-08-11T14:09:59.745Z,100973.50
2022-08-11T14:12:49.959Z,100978.47
2022-08-11T14:15:24.962Z,100965.06
2022-08-11T14:17:56.339Z,100967.72
2022-08-11T14:20:49.172Z,100963.25
2022-08-11T14:23:17.022Z,100957.38
2022-08-11T14:26:01.853Z,100958.19
2022-08-11T14:28:44.398Z,100967.00
2022-08-11T14:31:16.035Z,100960.62
2022-08-11T14:34:00.409Z,100963.78
2022-08-11T14:36:33.973Z,100953.66
2022-08-11T14:39:04.438Z,100961.69
2022-08-11T14:42:10.513Z,100958.16
2022-08-11T14:45:00.996Z,100956.69
2022-08-11T14:47:31.797Z,100947.44
2022-08-11T14:50:11.867Z,100949.94
2022-08-11T14:52:46.802Z,100946.50
2022-08-11T14:55:34.183Z,100948.84
2022-08-11T14:58:03.323Z,100947.31
2022-08-11T15:00:35.118Z,100944.38
2022-08-11T15:03:10.947Z,100947.88
2022-08-11T15:05:54.297Z,100942.72
2022-08-11T15:08:49.451Z,100942.31
2022-08-11T15:11:37.450Z,100945.41
2022-08-11T15:14:08.920Z,100938.50
2022-08-11T15:17:12.327Z,100931.53
2022-08-11T15:20:04.924Z,100930.19
2022-08-11T15:22:51.196Z,100933.19
2022-08-11T15:25:20.961Z,100918.87
2022-08-11T15:28:10.000Z,100931.09
2022-08-11T15:31:08.231Z,100915.56
2022-08-11T15:33:58.028Z,100913.00
2022-08-11T15:36:46.051Z,100906.50
2022-08-11T15:39:21.104Z,100914.78
2022-08-11T15:42:12.707Z,100907.75
2022-08-11T15:45:04.587Z,100906.38
2022-08-11T15:47:38.728Z,100909.53
2022-08-11T15:50:15.682Z,100908.97
2022-08-11T15:52:53.641Z,100906.34
2022-08-11T15:55:23.824Z,100909.59
2022-08-11T15:58:12.307Z,100907.63
2022-08-11T16:01:08.588Z,100905.38
2022-08-11T16:04:08.082Z,100906.50
2022-08-11T16:06:49.307Z,100891.00
2022-08-11T16:09:39.719Z,100896.78
2022-08-11T16:12:18.462Z,100900.44
2022-08-11T16:15:10.829Z,100887.34
2022-08-11T16:17:44.259Z,100888.94
2022-08-11T16:20:15.233Z,100885.97
2022-08-11T16:23:01.464Z,100881.59
2022-08-11T16:27:05.524Z,100874.09
2022-08-11T16:28:26.172Z,100879.69
2022-08-11T16:30:56.186Z,100874.97
2022-08-11T16:33:49.465Z,100880.78
2022-08-11T16:36:49.189Z,100869.00
2022-08-11T16:39:19.610Z,100874.06
2022-08-11T16:42:07.662Z,100865.50
2022-08-11T16:45:15.316Z,100866.84
2022-08-11T16:48:03.682Z,100868.50
2022-08-11T16:50:33.835Z,100858.97
2022-08-11T16:53:02.006Z,100862.00
2022-08-11T16:55:51.539Z,100864.72
2022-08-11T16:58:44.702Z,100867.75
2022-08-11T17:01:14.523Z,100862.78
2022-08-11T17:04:04.433Z,100867.44
2022-08-11T17:06:52.732Z,100873.56
2022-08-11T17:09:41.360Z,100860.50
2022-08-11T17:12:30.051Z,100859.56
2022-08-11T17:15:01.536Z,100864.53
2022-08-11T17:17:36.958Z,100862.84
2022-08-11T17:20:38.372Z,100861.84
2022-08-11T17:23:18.136Z,100860.59
2022-08-11T17:26:03.565Z,100866.31
2022-08-11T17:28:35.920Z,100870.22
2022-08-11T17:31:23.799Z,100859.78
2022-08-11T17:34:11.370Z,100863.84
2022-08-11T17:36:45.564Z,100857.63
2022-08-11T17:39:16.265Z,100861.41
2022-08-11T17:42:05.124Z,100862.91
2022-08-11T17:44:54.431Z,100866.28
2022-08-11T17:47:43.628Z,100866.88
2022-08-11T17:50:16.955Z,100868.13
2022-08-11T17:53:06.203Z,100871.37
2022-08-11T17:55:53.832Z,100870.53
2022-08-11T17:58:41.548Z,100870.50
2022-08-11T18:01:20.544Z,100873.56
2022-08-11T18:03:56.255Z,100870.84
2022-08-11T18:06:34.773Z,100867.06
2022-08-11T18:09:23.186Z,100872.81
2022-08-11T18:12:11.383Z,100864.84
2022-08-11T18:14:59.059Z,100869.72
2022-08-11T18:17:46.034Z,100881.63
2022-08-11T18:20:32.984Z,100880.94
2022-08-11T18:23:21.779Z,100874.56
2022-08-11T18:26:28.787Z,100870.31
2022-08-11T18:29:17.624Z,100877.22
2022-08-11T18:32:08.759Z,100885.16
2022-08-11T18:35:00.245Z,100885.25
2022-08-11T18:37:51.206Z,100884.72
2022-08-11T18:40:41.034Z,100890.91
2022-08-11T18:43:30.281Z,100881.69
2022-08-11T18:46:19.462Z,100879.81
2022-08-11T18:49:15.370Z,100881.47
2022-08-11T18:52:06.547Z,100885.25
2022-08-11T18:54:56.416Z,100883.94
2022-08-11T18:57:49.432Z,100887.44
2022-08-11T19:00:40.048Z,100894.28
2022-08-11T19:03:26.448Z,100883.28
2022-08-11T19:06:38.874Z,100891.31
2022-08-11T19:09:26.258Z,100893.38
2022-08-11T19:12:13.678Z,100895.03
2022-08-11T19:15:01.476Z,100897.31
2022-08-11T19:17:49.461Z,100896.50
2022-08-11T19:20:38.518Z,100904.38
2022-08-11T19:23:27.451Z,100904.19
2022-08-11T19:26:16.309Z,100905.72
2022-08-11T19:29:05.185Z,100907.25
2022-08-11T19:31:51.733Z,100915.72
2022-08-11T19:34:39.555Z,100917.12
2022-08-11T19:37:27.269Z,100913.94
2022-08-11T19:40:16.628Z,100922.25
2022-08-11T19:43:14.762Z,100921.50
2022-08-11T19:46:11.861Z,100925.50
2022-08-11T19:48:58.921Z,100934.81
2022-08-11T19:51:47.439Z,100930.94
2022-08-11T19:54:42.913Z,100932.06
2022-08-11T19:57:29.946Z,100931.31
2022-08-11T20:00:17.535Z,100936.09
2022-08-11T20:03:08.736Z,100935.06
2022-08-11T20:05:59.716Z,100937.06
2022-08-11T20:08:48.707Z,100929.19
2022-08-11T20:11:36.545Z,100938.22
2022-08-11T20:14:25.299Z,100942.16
2022-08-11T20:17:13.847Z,100934.69
2022-08-11T20:22:49.271Z,100936.94
2022-08-11T20:25:36.720Z,100933.25
2022-08-11T20:28:24.130Z,100932.63
2022-08-11T20:31:11.923Z,100935.72
2022-08-11T20:34:01.119Z,100932.56
2022-08-11T20:36:54.057Z,100933.13
2022-08-11T20:39:42.042Z,100932.47
2022-08-11T20:42:30.717Z,100926.38
2022-08-11T20:45:23.323Z,100930.97
2022-08-11T20:48:14.701Z,100924.38
2022-08-11T20:51:06.139Z,100926.41
2022-08-11T20:53:53.805Z,100926.78
2022-08-11T20:56:43.410Z,100926.78
2022-08-11T20:59:33.299Z,100931.38
2022-08-11T21:02:25.992Z,100932.53
2022-08-11T21:05:15.913Z,100932.37
2022-08-11T21:08:13.197Z,100941.31
2022-08-11T21:11:00.408Z,100938.78
2022-08-11T21:13:51.498Z,100940.09
2022-08-11T21:16:47.449Z,100940.09
2022-08-11T21:19:59.893Z,100948.22
2022-08-11T21:22:59.497Z,100951.28
2022-08-11T21:25:59.823Z,100954.78
2022-08-11T21:28:47.818Z,100952.69
2022-08-11T21:31:35.057Z,100958.69
2022-08-11T21:34:22.037Z,100959.53
2022-08-11T21:37:08.667Z,100963.44
2022-08-11T21:39:55.811Z,100967.66
2022-08-11T21:42:43.938Z,100967.00
2022-08-11T21:45:31.864Z,100973.59
2022-08-11T21:48:19.539Z,100970.66
2022-08-11T21:51:05.645Z,100978.28
2022-08-11T21:53:52.480Z,100976.75
2022-08-11T21:56:39.032Z,100974.88
2022-08-11T21:59:26.520Z,100978.06
2022-08-11T22:02:13.099Z,100970.94
2022-08-11T22:04:59.990Z,100984.66
2022-08-11T22:07:46.965Z,100980.41
2022-08-11T22:10:42.081Z,100971.63
2022-08-11T22:13:30.291Z,100979.72
2022-08-11T22:16:17.864Z,100982.44
2022-08-11T22:19:04.782Z,100980.88
2022-08-11T22:22:02.535Z,100981.25
2022-08-11T22:24:51.343Z,100987.38
2022-08-11T22:27:37.513Z,100986.28
2022-08-11T22:30:25.366Z,100978.06
2022-08-11T22:33:15.162Z,100976.81
2022-08-11T22:36:02.575Z,100985.53
2022-08-11T22:38:51.068Z,100981.25
2022-08-11T22:41:37.390Z,100977.22
2022-08-11T22:44:23.780Z,100980.31
2022-08-11T22:47:12.384Z,100985.72
2022-08-11T22:50:01.281Z,100986.50
2022-08-11T22:52:48.163Z,100985.53
2022-08-11T22:55:34.875Z,100981.88
2022-08-11T22:58:22.105Z,100981.91
2022-08-11T23:01:08.090Z,100983.34
2022-08-11T23:03:54.276Z,100978.56
2022-08-11T23:06:42.618Z,100981.00
2022-08-11T23:09:28.730Z,100982.44
2022-08-11T23:12:16.453Z,100976.78
2022-08-11T23:15:03.720Z,100979.22
2022-08-11T23:17:50.833Z,100970.16
2022-08-11T23:20:39.561Z,100980.41
2022-08-11T23:23:32.957Z,100984.09
2022-08-11T23:26:19.908Z,100978.00
2022-08-11T23:29:06.323Z,100984.56
2022-08-11T23:31:54.129Z,100988.81
2022-08-11T23:35:37.253Z,100992.09
2022-08-11T23:37:49.179Z,100995.63
2022-08-11T23:40:36.073Z,100990.53
2022-08-11T23:43:21.820Z,100981.00
2022-08-11T23:46:07.838Z,100983.72
2022-08-11T23:48:55.790Z,100992.22
2022-08-11T23:51:42.399Z,100988.12
2022-08-11T23:54:31.627Z,100997.31
2022-08-11T23:57:22.677Z,100989.81
